createdAt,value
2018-11-12T00:01:48.401Z,7.46
2018-11-12T00:04:18.554Z,7.48
2018-11-12T00:06:48.429Z,7.52
2018-11-12T00:09:19.443Z,7.57
2018-11-12T00:11:50.602Z,7.52
2018-11-12T00:14:24.350Z,7.47
2018-11-12T00:16:57.270Z,7.48
2018-11-12T00:19:30.672Z,7.53
2018-11-12T00:22:01.631Z,7.50
2018-11-12T00:24:32.630Z,7.50
2018-11-12T00:27:02.565Z,7.59
2018-11-12T00:29:33.694Z,7.57
2018-11-12T00:32:04.747Z,7.42
2018-11-12T00:34:34.536Z,7.47
2018-11-12T00:37:08.353Z,7.47
2018-11-12T00:39:38.650Z,7.58
2018-11-12T00:42:08.591Z,7.62
2018-11-12T00:44:39.619Z,7.64
2018-11-12T00:47:10.699Z,7.71
2018-11-12T00:49:41.650Z,7.75
2018-11-12T00:52:13.822Z,7.90
2018-11-12T00:54:45.988Z,7.92
2018-11-12T00:57:17.638Z,7.85
2018-11-12T00:59:50.030Z,7.78
2018-11-12T01:02:21.774Z,7.77
2018-11-12T01:04:52.438Z,7.73
2018-11-12T01:07:25.535Z,7.71
2018-11-12T01:09:56.698Z,7.68
2018-11-12T01:12:27.763Z,7.70
2018-11-12T01:14:57.799Z,7.71
2018-11-12T01:17:30.646Z,7.78
2018-11-12T01:20:01.821Z,7.79
2018-11-12T01:22:31.897Z,7.79
2018-11-12T01:25:02.032Z,7.79
2018-11-12T01:27:33.806Z,7.74
2018-11-12T01:30:03.963Z,7.69
2018-11-12T01:32:35.054Z,7.73
2018-11-12T01:35:05.601Z,7.82
2018-11-12T01:37:35.876Z,7.77
2018-11-12T01:40:07.834Z,7.83
2018-11-12T01:42:37.427Z,7.91
2018-11-12T01:45:12.938Z,7.96
2018-11-12T01:47:46.031Z,7.93
2018-11-12T01:50:19.241Z,7.88
2018-11-12T01:52:49.577Z,7.94
2018-11-12T01:55:20.205Z,7.89
2018-11-12T01:57:49.982Z,7.87
2018-11-12T02:00:21.579Z,7.88
2018-11-12T02:02:52.098Z,7.89
2018-11-12T02:05:21.428Z,7.87
2018-11-12T02:07:51.874Z,7.85
2018-11-12T02:10:21.938Z,7.86
2018-11-12T02:12:52.108Z,7.85
2018-11-12T02:15:23.036Z,7.89
2018-11-12T02:17:52.964Z,7.88
2018-11-12T02:20:24.176Z,7.86
2018-11-12T02:22:54.678Z,7.84
2018-11-12T02:25:26.858Z,7.85
2018-11-12T02:27:56.195Z,7.88
2018-11-12T02:30:31.228Z,7.84
2018-11-12T02:33:01.478Z,7.82
2018-11-12T02:35:33.182Z,7.79
2018-11-12T02:38:05.119Z,7.79
2018-11-12T02:40:37.314Z,7.80
2018-11-12T02:43:08.451Z,7.77
2018-11-12T02:45:38.166Z,7.69
2018-11-12T02:48:10.286Z,7.69
2018-11-12T02:50:42.171Z,7.74
2018-11-12T02:53:13.287Z,7.77
2018-11-12T02:55:44.156Z,7.84
2018-11-12T02:58:17.259Z,7.83
2018-11-12T03:00:51.123Z,7.82
2018-11-12T03:03:21.295Z,7.87
2018-11-12T03:05:52.231Z,7.82
2018-11-12T03:08:23.334Z,7.78
2018-11-12T03:10:53.309Z,7.82
2018-11-12T03:13:24.345Z,7.87
2018-11-12T03:15:55.219Z,7.84
2018-11-12T03:18:25.330Z,7.81
2018-11-12T03:20:56.271Z,7.83
2018-11-12T03:23:26.490Z,7.81
2018-11-12T03:25:57.419Z,7.83
2018-11-12T03:28:27.446Z,7.86
2018-11-12T03:30:58.271Z,7.88
2018-11-12T03:33:28.259Z,7.86
2018-11-12T03:35:58.384Z,7.79
2018-11-12T03:38:29.382Z,7.76
2018-11-12T03:40:58.758Z,7.72
2018-11-12T03:43:28.163Z,7.77
2018-11-12T03:46:01.249Z,7.67
2018-11-12T03:48:32.469Z,7.66
2018-11-12T03:51:03.490Z,7.65
2018-11-12T03:53:39.780Z,7.65
2018-11-12T03:56:10.335Z,7.59
2018-11-12T03:58:40.545Z,7.53
2018-11-12T04:01:13.410Z,7.45
2018-11-12T04:03:47.547Z,7.50
2018-11-12T04:06:18.451Z,7.63
2018-11-12T04:08:51.401Z,7.56
2018-11-12T04:11:22.922Z,7.52
2018-11-12T04:13:53.525Z,7.52
2018-11-12T04:16:23.543Z,7.56
2018-11-12T04:18:57.402Z,7.52
2018-11-12T04:21:31.412Z,7.43
2018-11-12T04:24:01.908Z,7.42
2018-11-12T04:26:32.570Z,7.42
2018-11-12T04:29:05.030Z,7.43
2018-11-12T04:31:34.743Z,7.45
2018-11-12T04:34:05.019Z,7.49
2018-11-12T04:36:38.499Z,7.51
2018-11-12T04:39:10.853Z,7.51
2018-11-12T04:41:42.610Z,7.46
2018-11-12T04:44:13.258Z,7.35
2018-11-12T04:46:43.811Z,7.35
2018-11-12T04:49:13.702Z,7.33
2018-11-12T04:51:44.754Z,7.33
2018-11-12T04:54:14.800Z,7.29
2018-11-12T04:56:45.860Z,7.33
2018-11-12T04:59:15.862Z,7.31
2018-11-12T05:01:47.800Z,7.35
2018-11-12T05:04:20.643Z,7.30
2018-11-12T05:06:53.649Z,7.18
2018-11-12T05:09:24.559Z,7.17
2018-11-12T05:11:54.762Z,7.23
2018-11-12T05:14:31.696Z,7.26
2018-11-12T05:17:01.898Z,7.16
2018-11-12T05:19:32.976Z,7.15
2018-11-12T05:22:05.174Z,7.17
2018-11-12T05:24:37.091Z,7.18
2018-11-12T05:27:08.063Z,7.26
2018-11-12T05:29:38.975Z,7.20
2018-11-12T05:32:09.707Z,7.21
2018-11-12T05:34:40.239Z,7.18
2018-11-12T05:37:10.803Z,7.22
2018-11-12T05:39:41.712Z,7.26
2018-11-12T05:42:12.395Z,7.33
2018-11-12T05:44:43.077Z,7.30
2018-11-12T05:47:14.131Z,7.21
2018-11-12T05:49:43.959Z,7.27
2018-11-12T05:52:14.988Z,7.23
2018-11-12T05:54:44.958Z,7.15
2018-11-12T05:57:15.890Z,7.11
2018-11-12T05:59:46.380Z,6.99
2018-11-12T06:02:16.894Z,7.02
2018-11-12T06:04:56.016Z,6.89
2018-11-12T06:07:30.614Z,6.87
2018-11-12T06:10:02.088Z,6.88
2018-11-12T06:12:34.151Z,6.85
2018-11-12T06:15:05.579Z,6.89
2018-11-12T06:17:35.203Z,6.88
2018-11-12T06:20:09.382Z,6.93
2018-11-12T06:22:39.364Z,6.91
2018-11-12T06:25:11.498Z,6.90
2018-11-12T06:27:43.338Z,6.89
2018-11-12T06:30:16.863Z,6.89
2018-11-12T06:32:48.277Z,6.93
2018-11-12T06:35:18.630Z,6.88
2018-11-12T06:37:52.859Z,6.89
2018-11-12T06:40:24.611Z,6.92
2018-11-12T06:42:56.354Z,6.95
2018-11-12T06:45:30.403Z,7.03
2018-11-12T06:48:02.527Z,7.00
2018-11-12T06:50:34.002Z,7.05
2018-11-12T06:53:05.872Z,7.01
2018-11-12T06:55:36.471Z,7.00
2018-11-12T06:58:07.241Z,7.05
2018-11-12T07:00:37.379Z,7.01
2018-11-12T07:03:08.555Z,6.99
2018-11-12T07:05:38.374Z,6.98
2018-11-12T07:08:13.250Z,7.01
2018-11-12T07:10:42.731Z,6.98
2018-11-12T07:13:13.635Z,6.95
2018-11-12T07:15:43.686Z,7.00
2018-11-12T07:18:15.682Z,7.09
2018-11-12T07:20:48.110Z,7.09
2018-11-12T07:23:21.351Z,7.13
2018-11-12T07:25:55.396Z,7.27
2018-11-12T07:28:31.346Z,7.41
2018-11-12T07:31:06.138Z,7.34
2018-11-12T07:33:38.551Z,7.33
2018-11-12T07:36:08.605Z,7.29
2018-11-12T07:38:38.558Z,7.30
2018-11-12T07:41:08.702Z,7.29
2018-11-12T07:43:38.613Z,7.40
2018-11-12T07:46:08.554Z,7.37
2018-11-12T07:48:39.823Z,7.33
2018-11-12T07:51:11.631Z,7.41
2018-11-12T07:53:43.772Z,7.45
2018-11-12T07:56:14.698Z,7.45
2018-11-12T07:58:45.582Z,7.43
2018-11-12T08:01:19.663Z,7.53
2018-11-12T08:03:49.788Z,7.63
2018-11-12T08:06:20.844Z,7.62
2018-11-12T08:08:51.656Z,7.64
2018-11-12T08:11:23.613Z,7.69
2018-11-12T08:13:58.528Z,7.77
2018-11-12T08:16:31.163Z,7.79
2018-11-12T08:19:02.979Z,7.84
2018-11-12T08:21:34.104Z,7.83
2018-11-12T08:24:05.080Z,7.86
2018-11-12T08:26:36.591Z,7.81
2018-11-12T08:29:08.678Z,7.85
2018-11-12T08:31:38.944Z,7.81
2018-11-12T08:34:10.667Z,7.79
2018-11-12T08:36:40.119Z,7.71
2018-11-12T08:39:11.299Z,7.68
2018-11-12T08:41:40.822Z,7.72
2018-11-12T08:44:14.628Z,7.80
2018-11-12T08:46:45.202Z,7.79
2018-11-12T08:49:15.959Z,8.02
2018-11-12T08:51:45.927Z,8.13
2018-11-12T08:54:16.867Z,7.92
2018-11-12T08:56:47.801Z,7.97
2018-11-12T08:59:17.965Z,8.07
2018-11-12T09:01:48.855Z,8.09
2018-11-12T09:04:20.016Z,8.00
2018-11-12T09:06:50.130Z,8.24
2018-11-12T09:09:21.003Z,8.26
2018-11-12T09:11:50.852Z,8.19
2018-11-12T09:14:21.958Z,8.27
2018-11-12T09:16:56.397Z,8.30
2018-11-12T09:19:27.063Z,8.28
2018-11-12T09:21:57.050Z,8.38
2018-11-12T09:24:28.083Z,8.35
2018-11-12T09:26:59.014Z,8.34
2018-11-12T09:29:29.619Z,8.45
2018-11-12T09:31:59.026Z,8.45
2018-11-12T09:34:29.800Z,8.44
2018-11-12T09:36:59.260Z,8.31
2018-11-12T09:39:31.215Z,8.42
2018-11-12T09:42:02.055Z,8.34
2018-11-12T09:44:32.479Z,8.38
2018-11-12T09:47:02.113Z,8.46
2018-11-12T09:49:33.090Z,8.55
2018-11-12T09:52:05.762Z,8.75
2018-11-12T09:54:37.101Z,8.80
2018-11-12T09:57:08.120Z,8.58
2018-11-12T09:59:38.251Z,8.58
2018-11-12T10:02:09.099Z,8.63
2018-11-12T10:04:40.873Z,8.70
2018-11-12T10:07:11.154Z,8.80
2018-11-12T10:09:42.439Z,8.91
2018-11-12T10:12:12.115Z,8.74
2018-11-12T10:14:44.008Z,8.79
2018-11-12T10:17:15.361Z,8.90
2018-11-12T10:19:42.431Z,9.03
2018-11-12T10:22:14.332Z,9.04
2018-11-12T10:24:46.435Z,9.10
2018-11-12T10:27:17.620Z,8.86
2018-11-12T10:29:47.286Z,8.99
2018-11-12T10:32:41.166Z,8.90
2018-11-12T10:35:19.171Z,9.11
2018-11-12T10:37:50.339Z,8.91
2018-11-12T10:40:30.402Z,9.18
2018-11-12T10:42:59.744Z,9.11
2018-11-12T10:45:31.485Z,8.88
2018-11-12T10:48:02.519Z,8.82
2018-11-12T10:50:33.438Z,9.10
2018-11-12T10:53:05.779Z,8.95
2018-11-12T10:55:37.828Z,9.04
2018-11-12T10:58:08.435Z,8.91
2018-11-12T11:00:44.991Z,9.03
2018-11-12T11:04:28.263Z,9.08
2018-11-12T11:06:59.174Z,9.05
2018-11-12T11:09:29.317Z,8.96
2018-11-12T11:11:58.883Z,9.05
2018-11-12T11:14:30.254Z,9.12
2018-11-12T11:17:00.114Z,9.28
2018-11-12T11:19:30.847Z,9.07
2018-11-12T11:22:01.483Z,9.20
2018-11-12T11:24:37.976Z,9.15
2018-11-12T11:27:07.725Z,9.15
2018-11-12T11:29:38.646Z,9.15
2018-11-12T11:32:09.563Z,9.11
2018-11-12T11:34:39.640Z,9.15
2018-11-12T11:37:15.565Z,9.14
2018-11-12T11:39:49.792Z,9.12
2018-11-12T11:42:20.531Z,9.09
2018-11-12T11:44:57.950Z,9.18
2018-11-12T11:47:29.617Z,9.31
2018-11-12T11:49:59.082Z,9.34
2018-11-12T11:52:35.062Z,9.36
2018-11-12T11:55:07.762Z,9.23
2018-11-12T11:57:42.449Z,9.51
2018-11-12T12:00:18.888Z,9.37
2018-11-12T12:02:50.432Z,9.18
2018-11-12T12:05:22.799Z,9.25
2018-11-12T12:07:53.762Z,9.23
2018-11-12T12:10:26.175Z,9.46
2018-11-12T12:12:57.513Z,9.30
2018-11-12T12:15:27.890Z,9.44
2018-11-12T12:17:59.135Z,9.31
2018-11-12T12:20:28.794Z,9.36
2018-11-12T12:22:59.082Z,9.37
2018-11-12T12:25:32.925Z,9.47
2018-11-12T12:28:03.967Z,9.26
2018-11-12T12:30:34.030Z,9.26
2018-11-12T12:33:03.963Z,9.34
2018-11-12T12:35:35.868Z,9.35
2018-11-12T12:38:10.979Z,9.34
2018-11-12T12:40:41.815Z,9.31
2018-11-12T12:43:15.010Z,9.29
2018-11-12T12:45:47.536Z,9.42
2018-11-12T12:48:19.454Z,9.39
2018-11-12T12:50:49.805Z,9.42
2018-11-12T12:53:22.758Z,9.60
2018-11-12T12:55:54.288Z,9.41
2018-11-12T12:58:24.627Z,9.33
2018-11-12T13:00:55.927Z,9.58
2018-11-12T13:03:33.845Z,9.47
2018-11-12T13:06:10.851Z,9.30
2018-11-12T13:08:41.414Z,9.25
2018-11-12T13:11:12.045Z,9.25
2018-11-12T13:13:43.102Z,9.44
2018-11-12T13:16:13.175Z,9.34
2018-11-12T13:18:47.859Z,9.49
2018-11-12T13:21:19.284Z,9.48
2018-11-12T13:23:54.060Z,9.42
2018-11-12T13:26:27.457Z,9.52
2018-11-12T13:28:57.276Z,9.40
2018-11-12T13:31:28.182Z,9.29
2018-11-12T13:33:58.239Z,9.36
2018-11-12T13:36:30.028Z,9.33
2018-11-12T13:38:59.523Z,9.46
2018-11-12T13:41:30.485Z,9.44
2018-11-12T13:43:59.831Z,9.67
2018-11-12T13:46:36.803Z,9.70
2018-11-12T13:49:10.013Z,9.42
2018-11-12T13:51:46.784Z,9.56
2018-11-12T13:54:22.116Z,9.39
2018-11-12T13:56:54.320Z,9.36
2018-11-12T13:59:25.227Z,9.29
2018-11-12T14:01:55.261Z,9.20
2018-11-12T14:04:26.479Z,9.29
2018-11-12T14:06:57.647Z,9.24
2018-11-12T14:09:29.527Z,9.43
2018-11-12T14:11:59.440Z,9.55
2018-11-12T14:14:30.317Z,9.49
2018-11-12T14:16:59.701Z,9.52
2018-11-12T14:19:31.379Z,9.49
2018-11-12T14:22:03.463Z,9.38
2018-11-12T14:24:35.394Z,9.29
2018-11-12T14:27:05.554Z,9.25
2018-11-12T14:29:36.406Z,9.27
2018-11-12T14:32:08.643Z,9.23
2018-11-12T14:34:39.606Z,9.25
2018-11-12T14:37:11.046Z,9.21
2018-11-12T14:39:41.734Z,9.31
2018-11-12T14:42:11.401Z,9.40
2018-11-12T14:44:42.426Z,9.25
2018-11-12T14:47:13.184Z,9.29
2018-11-12T14:49:43.799Z,9.25
2018-11-12T14:52:14.459Z,9.23
2018-11-12T14:54:44.547Z,9.19
2018-11-12T14:57:15.410Z,9.16
2018-11-12T14:59:45.547Z,9.11
2018-11-12T15:02:15.859Z,9.04
2018-11-12T15:04:45.222Z,9.01
2018-11-12T15:07:23.763Z,8.94
2018-11-12T15:09:54.662Z,8.87
2018-11-12T15:12:25.686Z,8.79
2018-11-12T15:14:57.117Z,8.75
2018-11-12T15:17:28.719Z,8.74
2018-11-12T15:20:02.683Z,8.75
2018-11-12T15:22:32.895Z,8.75
2018-11-12T15:25:02.798Z,8.71
2018-11-12T15:27:33.798Z,8.77
2018-11-12T15:30:03.162Z,8.83
2018-11-12T15:32:33.589Z,8.83
2018-11-12T15:35:07.195Z,8.79
2018-11-12T15:37:39.055Z,8.75
2018-11-12T15:40:10.048Z,8.80
2018-11-12T15:42:40.055Z,8.76
2018-11-12T15:45:16.555Z,8.81
2018-11-12T15:47:47.471Z,8.79
2018-11-12T15:50:22.650Z,8.76
2018-11-12T15:52:59.444Z,8.75
2018-11-12T15:55:29.945Z,8.73
2018-11-12T15:57:59.501Z,8.69
2018-11-12T16:00:30.746Z,8.71
2018-11-12T16:03:00.103Z,8.69
2018-11-12T16:05:32.975Z,8.64
2018-11-12T16:08:03.518Z,8.64
2018-11-12T16:10:33.758Z,8.58
2018-11-12T16:13:06.064Z,8.59
2018-11-12T16:15:36.161Z,8.57
2018-11-12T16:18:07.007Z,8.56
2018-11-12T16:20:38.059Z,8.64
2018-11-12T16:23:09.015Z,8.62
2018-11-12T16:25:38.399Z,8.66
2018-11-12T16:28:09.959Z,8.74
2018-11-12T16:30:39.911Z,8.77
2018-11-12T16:33:10.879Z,8.71
2018-11-12T16:35:42.056Z,8.63
2018-11-12T16:38:11.404Z,8.58
2018-11-12T16:40:42.087Z,8.65
2018-11-12T16:43:13.043Z,8.71
2018-11-12T16:45:44.094Z,8.76
2018-11-12T16:48:14.082Z,8.74
2018-11-12T16:50:45.159Z,8.72
2018-11-12T16:53:15.134Z,8.66
2018-11-12T16:55:45.186Z,8.59
2018-11-12T16:58:17.118Z,8.53
2018-11-12T17:00:47.196Z,8.57
2018-11-12T17:03:18.183Z,8.59
2018-11-12T17:05:53.198Z,8.53
2018-11-12T17:08:23.834Z,8.47
2018-11-12T17:10:54.195Z,8.49
2018-11-12T17:13:24.162Z,8.46
2018-11-12T17:15:55.133Z,8.43
2018-11-12T17:18:25.428Z,8.43
2018-11-12T17:20:57.166Z,8.39
2018-11-12T17:23:27.152Z,8.33
2018-11-12T17:26:01.043Z,8.33
2018-11-12T17:28:30.646Z,8.22
2018-11-12T17:31:00.098Z,8.22
2018-11-12T17:33:31.400Z,8.23
2018-11-12T17:36:08.062Z,8.26
2018-11-12T17:38:38.393Z,8.23
2018-11-12T17:41:09.269Z,8.21
2018-11-12T17:43:42.149Z,8.17
2018-11-12T17:46:13.282Z,8.17
2018-11-12T17:48:43.467Z,8.18
2018-11-12T17:51:13.410Z,8.17
2018-11-12T17:53:43.430Z,8.14
2018-11-12T17:56:15.290Z,8.12
2018-11-12T17:58:51.541Z,8.19
2018-11-12T18:01:22.592Z,8.30
2018-11-12T18:03:53.522Z,8.18
2018-11-12T18:06:23.432Z,8.12
2018-11-12T18:08:53.490Z,8.14
2018-11-12T18:11:25.315Z,8.08
2018-11-12T18:13:55.410Z,8.12
2018-11-12T18:16:25.472Z,8.08
2018-11-12T18:18:56.480Z,8.02
2018-11-12T18:21:26.569Z,7.94
2018-11-12T18:23:57.438Z,7.88
2018-11-12T18:26:27.669Z,7.88
2018-11-12T18:28:57.957Z,7.86
2018-11-12T18:31:31.816Z,7.90
2018-11-12T18:34:06.219Z,7.86
2018-11-12T18:36:38.630Z,7.80
2018-11-12T18:39:11.027Z,7.74
2018-11-12T18:41:41.591Z,7.73
2018-11-12T18:44:12.603Z,7.68
2018-11-12T18:46:42.775Z,7.68
2018-11-12T18:49:13.730Z,7.68
2018-11-12T18:51:45.686Z,7.73
2018-11-12T18:54:16.684Z,7.76
2018-11-12T18:56:47.817Z,7.78
2018-11-12T18:59:17.587Z,7.78
2018-11-12T19:01:49.080Z,7.79
2018-11-12T19:04:19.188Z,7.85
2018-11-12T19:06:49.518Z,7.86
2018-11-12T19:09:19.725Z,7.76
2018-11-12T19:11:50.709Z,7.70
2018-11-12T19:14:21.491Z,7.75
2018-11-12T19:16:51.184Z,7.79
2018-11-12T19:19:21.986Z,7.76
2018-11-12T19:21:51.803Z,7.78
2018-11-12T19:24:22.038Z,7.70
2018-11-12T19:26:53.821Z,7.70
2018-11-12T19:29:24.734Z,7.69
2018-11-12T19:31:55.003Z,7.67
2018-11-12T19:34:25.994Z,7.73
2018-11-12T19:36:55.926Z,7.75
2018-11-12T19:39:26.640Z,7.59
2018-11-12T19:41:56.874Z,7.56
2018-11-12T19:44:26.299Z,7.59
2018-11-12T19:46:56.103Z,7.58
2018-11-12T19:49:26.081Z,7.59
2018-11-12T19:51:56.058Z,7.65
2018-11-12T19:54:26.872Z,7.65
2018-11-12T19:56:59.474Z,7.62
2018-11-12T19:59:36.081Z,7.60
2018-11-12T20:02:06.969Z,7.51
2018-11-12T20:04:36.890Z,7.52
2018-11-12T20:07:13.943Z,7.56
2018-11-12T20:09:46.056Z,7.52
2018-11-12T20:12:16.178Z,7.51
2018-11-12T20:14:48.346Z,7.54
2018-11-12T20:17:18.695Z,7.44
2018-11-12T20:19:48.931Z,7.46
2018-11-12T20:22:19.763Z,7.42
2018-11-12T20:24:53.343Z,7.48
2018-11-12T20:27:25.531Z,7.49
2018-11-12T20:29:57.187Z,7.45
2018-11-12T20:32:27.139Z,7.36
2018-11-12T20:34:59.108Z,7.38
2018-11-12T20:37:29.216Z,7.33
2018-11-12T20:39:59.430Z,7.28
2018-11-12T20:42:30.286Z,7.32
2018-11-12T20:44:59.874Z,7.28
2018-11-12T20:47:34.216Z,7.30
2018-11-12T20:50:07.049Z,7.21
2018-11-12T20:52:37.345Z,7.18
2018-11-12T20:55:11.156Z,7.19
2018-11-12T20:57:42.418Z,7.23
2018-11-12T21:00:17.676Z,7.19
2018-11-12T21:02:50.410Z,7.20
2018-11-12T21:05:22.081Z,7.16
2018-11-12T21:07:55.133Z,7.20
2018-11-12T21:10:33.295Z,7.16
2018-11-12T21:13:03.452Z,7.14
2018-11-12T21:15:34.372Z,7.10
2018-11-12T21:18:04.324Z,7.15
2018-11-12T21:20:35.288Z,7.13
2018-11-12T21:23:05.546Z,7.11
2018-11-12T21:25:37.379Z,7.13
2018-11-12T21:28:10.362Z,7.17
2018-11-12T21:30:40.449Z,7.18
2018-11-12T21:33:10.375Z,7.18
2018-11-12T21:35:41.510Z,7.15
2018-11-12T21:38:11.435Z,7.13
2018-11-12T21:40:42.890Z,7.17
2018-11-12T21:43:12.571Z,7.20
2018-11-12T21:45:44.397Z,7.18
2018-11-12T21:48:16.345Z,7.25
2018-11-12T21:50:47.545Z,7.24
2018-11-12T21:53:17.626Z,7.19
2018-11-12T21:55:48.431Z,7.15
2018-11-12T21:58:25.005Z,7.16
2018-11-12T22:00:55.743Z,7.17
2018-11-12T22:03:26.196Z,7.21
2018-11-12T22:05:59.557Z,7.15
2018-11-12T22:08:30.773Z,7.23
2018-11-12T22:11:00.266Z,7.17
2018-11-12T22:13:34.430Z,7.15
2018-11-12T22:16:04.823Z,7.21
2018-11-12T22:18:36.698Z,7.20
2018-11-12T22:21:06.606Z,7.27
2018-11-12T22:23:38.562Z,7.31
2018-11-12T22:26:13.633Z,7.20
2018-11-12T22:28:43.810Z,7.12
2018-11-12T22:31:14.658Z,7.15
2018-11-12T22:33:44.570Z,7.12
2018-11-12T22:36:19.240Z,7.06
2018-11-12T22:38:49.846Z,7.04
2018-11-12T22:41:20.586Z,6.94
2018-11-12T22:43:50.806Z,6.99
2018-11-12T22:46:21.147Z,6.94
2018-11-12T22:48:51.683Z,6.83
2018-11-12T22:51:22.013Z,6.77
2018-11-12T22:53:52.880Z,6.72
2018-11-12T22:56:22.771Z,6.68
2018-11-12T22:58:53.275Z,6.62
2018-11-12T23:01:24.300Z,6.54
2018-11-12T23:03:53.761Z,6.69
2018-11-12T23:06:24.880Z,6.56
2018-11-12T23:08:55.033Z,6.55
2018-11-12T23:11:25.851Z,6.54
2018-11-12T23:13:55.782Z,6.56
2018-11-12T23:16:26.819Z,6.58
2018-11-12T23:18:56.860Z,6.54
2018-11-12T23:21:27.780Z,6.50
2018-11-12T23:23:57.958Z,6.49
2018-11-12T23:26:28.104Z,6.52
2018-11-12T23:28:59.983Z,6.50
2018-11-12T23:31:33.966Z,6.56
2018-11-12T23:34:04.183Z,6.55
2018-11-12T23:36:39.023Z,6.53
2018-11-12T23:39:11.662Z,6.43
2018-11-12T23:41:41.121Z,6.35
2018-11-12T23:44:12.004Z,6.38
2018-11-12T23:46:42.973Z,6.43
2018-11-12T23:49:13.983Z,6.47
2018-11-12T23:51:43.942Z,6.47
2018-11-12T23:54:15.062Z,6.45
2018-11-12T23:56:45.098Z,6.40
2018-11-12T23:59:16.034Z,6.38
